Truth Or Consequences Municipal Airport
KTCS : now visible

Airfield :











YOU CAN JOIN US ON...

 
LOGIN :

Register | Disclaimer

   EN    FR    IT 

 









Legend :    VFR   Marginal VFR   IFR   Intensive IFR   Very Intensive IFR
Visi :
Ceiling :
>= 8 km
>= 3000ft
5 to 8 km
1000 to 3000 ft
1500m to 5 km
500 to 1000 ft
800 to 1500m
200 to 500 ft
< 800m
< 200 ft
Symbols :   Thunderstorms  Fog  Heavy snow  Heavy precipitations  Wind > 20 kt






- Airport Elevation : 4853 ft


KTCS - Truth Or Consequences Municipal

CURRENT METAR :
  • 090153Z AUTO 27011KT 10SM CLR 32/06 A3011 RMK AO2 SLP100 T03170061

EXPIRED METARs :
  • 090053Z AUTO 30012KT 10SM CLR 32/08 A3010 RMK AO2 PK WND 29033/0009 LTG DSNT SW SLP098 T03170083
  • 082353Z AUTO 26008KT 10SM CLR 35/06 A3009 RMK AO2 SLP093 T03500061 10361 20322 56013

TAF KTCS
Valid from the 09 at 00:00 until the 10 at 00:00 UTC


082320Z 0900/0924 25010KT P6SM VCTS SCT080CB BKN100
FM090300 31007KT P6SM SCT100
FM091900 24009KT P6SM SCT100
KZAB FIR / North America



MET'MAP, your aeronautical weather chart ! - Copyright ORBIFLY December 2007 - Disclaimer

ORBIFLY MET'MAP TEAM :

Programming & Development : Alexandra Zaïnal
Concept & original design : Baudouin d'Aumeries
Assistance for programming : Marc-Olivier Méhu
Technical & hardware support : Manuel Goepfert

Contact : metmap@orbifly.com




SOURCES & CREDITS :

   NOAA       Earth
Advisory